RJSD(METAR)
07/17 16:00
METAR RJSD 170700Z AUTO 06007KT 020V090 9999 NCD 26/22 Q1012 RMK
A2991=
戻る
トップページへ戻る
IMOC Co,.Ltd.